Elsie, Michigan
Current Conditions -  °F | °C
As of 6:15 PM on Sunday 21 Dec 2014 (Local Time) from KRNP Reporting Station
Overcast Overcast  
Wind Chill: 26°   Ceiling: 5000
Heat Index: 32°   Visibility: 7mi
Dew Point: 27°   Wind: 6mph
Humidity: 83%   Direction: 120°ESE
Pressure: 30.2"   Gusts: NA
Location:  43.09°N, 84.39°W
Report Text: KRNP 212315Z AUTO 12005KT 7SM OVC050 00/M03 A3020 RMK AO2 T00001026
Loading
Personal Weather Stations






























Interactive Weather Map New forecast layout! Learn more

10-Day Weather Forecast

Advertisements
Track Severe Weather on mobile